createdAt,value
2022-08-10T00:00:49.167Z,80.88
2022-08-10T00:01:51.236Z,80.78
2022-08-10T00:02:49.099Z,81.28
2022-08-10T00:03:49.068Z,81.18
2022-08-10T00:04:49.095Z,81.38
2022-08-10T00:05:52.565Z,81.68
2022-08-10T00:06:48.997Z,81.48
2022-08-10T00:07:48.978Z,81.48
2022-08-10T00:08:48.926Z,81.99
2022-08-10T00:09:50.612Z,81.89
2022-08-10T00:10:48.877Z,81.93
2022-08-10T00:11:48.849Z,82.03
2022-08-10T00:12:54.348Z,82.03
2022-08-10T00:13:48.833Z,82.03
2022-08-10T00:14:48.834Z,82.23
2022-08-10T00:15:53.422Z,82.64
2022-08-10T00:16:48.711Z,82.03
2022-08-10T00:17:48.661Z,81.93
2022-08-10T00:18:48.638Z,82.13
2022-08-10T00:20:04.078Z,82.13
2022-08-10T00:20:48.627Z,81.82
2022-08-10T00:21:48.542Z,82.33
2022-08-10T00:22:52.846Z,81.93
2022-08-10T00:23:48.483Z,81.93
2022-08-10T00:24:48.458Z,82.33
2022-08-10T00:25:48.507Z,83.18
2022-08-10T00:27:52.007Z,82.84
2022-08-10T00:28:02.637Z,82.87
2022-08-10T00:28:48.343Z,82.98
2022-08-10T00:29:48.317Z,82.57
2022-08-10T00:30:48.336Z,83.38
2022-08-10T00:31:56.036Z,83.07
2022-08-10T00:32:48.222Z,83.18
2022-08-10T00:33:48.195Z,83.18
2022-08-10T00:34:48.163Z,83.28
2022-08-10T00:35:48.138Z,83.07
2022-08-10T00:36:48.158Z,83.18
2022-08-10T00:37:56.422Z,83.38
2022-08-10T00:38:48.046Z,83.18
2022-08-10T00:39:48.062Z,83.04
2022-08-10T00:40:47.982Z,83.28
2022-08-10T00:42:06.482Z,83.28
2022-08-10T00:42:47.984Z,83.28
2022-08-10T00:43:47.896Z,83.48
2022-08-10T00:44:47.867Z,83.68
2022-08-10T00:45:58.985Z,83.88
2022-08-10T00:46:48.434Z,84.12
2022-08-10T00:47:47.855Z,84.23
2022-08-10T00:48:47.753Z,84.43
2022-08-10T00:49:47.718Z,84.49
2022-08-10T00:50:47.687Z,84.63
2022-08-10T00:51:48.877Z,84.83
2022-08-10T00:52:47.710Z,85.03
2022-08-10T00:53:47.598Z,84.63
2022-08-10T00:54:47.571Z,85.08
2022-08-10T00:57:12.665Z,85.48
2022-08-10T00:57:16.539Z,85.28
2022-08-10T00:57:54.931Z,84.87
2022-08-10T00:58:47.507Z,85.78
2022-08-10T00:59:59.021Z,85.88
2022-08-10T01:00:47.399Z,85.42
2022-08-10T01:02:10.970Z,85.22
2022-08-10T01:02:47.499Z,85.22
2022-08-10T01:04:58.687Z,85.62
2022-08-10T01:05:00.050Z,85.25
2022-08-10T01:05:51.458Z,85.76
2022-08-10T01:06:47.243Z,85.66
2022-08-10T01:07:47.198Z,86.37
2022-08-10T01:08:47.222Z,87.12
2022-08-10T01:09:56.945Z,87.22
2022-08-10T01:10:47.096Z,87.46
2022-08-10T01:12:37.588Z,88.98
2022-08-10T01:12:47.308Z,88.78
2022-08-10T01:13:47.003Z,89.39
2022-08-10T01:14:47.038Z,89.02
2022-08-10T01:15:46.949Z,88.78
2022-08-10T01:16:46.922Z,89.39
2022-08-10T01:17:49.936Z,88.92
2022-08-10T01:18:46.861Z,89.12
2022-08-10T01:19:46.885Z,89.63
2022-08-10T01:20:46.857Z,89.73
2022-08-10T01:21:54.055Z,89.98
2022-08-10T01:22:46.742Z,90.24
2022-08-10T01:23:46.704Z,90.28
2022-08-10T01:24:46.676Z,90.38
2022-08-10T01:26:11.079Z,90.28
2022-08-10T01:26:46.621Z,91.39
2022-08-10T01:27:46.589Z,90.58
2022-08-10T01:28:46.556Z,90.69
2022-08-10T01:29:46.548Z,91.30
2022-08-10T01:30:46.561Z,91.15
2022-08-10T01:31:46.506Z,90.44
2022-08-10T01:32:46.437Z,90.58
2022-08-10T01:33:58.167Z,90.38
2022-08-10T01:34:46.379Z,91.09
2022-08-10T01:35:46.405Z,90.58
2022-08-10T01:36:46.371Z,91.09
2022-08-10T01:37:51.950Z,91.74
2022-08-10T01:38:46.263Z,92.05
2022-08-10T01:39:46.300Z,91.74
2022-08-10T01:40:46.213Z,91.80
2022-08-10T01:41:47.172Z,91.24
2022-08-10T01:42:46.154Z,91.34
2022-08-10T01:43:46.108Z,91.34
2022-08-10T01:44:46.078Z,92.05
2022-08-10T01:45:46.218Z,92.25
2022-08-10T01:46:46.089Z,92.76
2022-08-10T01:47:45.993Z,93.06
2022-08-10T01:48:45.961Z,93.06
2022-08-10T01:49:45.926Z,93.46
2022-08-10T01:50:59.985Z,92.96
2022-08-10T01:51:45.933Z,93.67
2022-08-10T01:52:45.897Z,93.67
2022-08-10T01:53:45.800Z,93.57
2022-08-10T01:54:46.721Z,92.96
2022-08-10T01:55:45.746Z,93.02
2022-08-10T01:56:45.719Z,93.12
2022-08-10T01:57:45.743Z,92.51
2022-08-10T01:58:45.708Z,92.10
2022-08-10T01:59:58.503Z,92.10
2022-08-10T02:00:45.608Z,91.30
2022-08-10T02:01:45.609Z,91.13
2022-08-10T02:02:45.619Z,91.94
2022-08-10T02:04:03.702Z,91.85
2022-08-10T02:04:45.468Z,91.99
2022-08-10T02:05:45.439Z,91.48
2022-08-10T02:06:45.420Z,91.78
2022-08-10T02:07:45.381Z,91.93
2022-08-10T02:08:45.411Z,92.13
2022-08-10T02:09:45.317Z,92.13
2022-08-10T02:10:45.286Z,92.13
2022-08-10T02:11:57.529Z,92.48
2022-08-10T02:12:45.231Z,93.09
2022-08-10T02:13:45.256Z,93.90
2022-08-10T02:14:45.228Z,94.51
2022-08-10T02:16:01.832Z,94.71
2022-08-10T02:16:45.158Z,94.92
2022-08-10T02:18:00.868Z,94.61
2022-08-10T02:18:45.048Z,94.76
2022-08-10T02:19:45.070Z,94.66
2022-08-10T02:20:44.993Z,94.86
2022-08-10T02:22:37.010Z,95.47
2022-08-10T02:22:44.920Z,96.38
2022-08-10T02:23:44.901Z,96.28
2022-08-10T02:24:44.919Z,98.01
2022-08-10T02:25:44.831Z,97.76
2022-08-10T02:26:44.799Z,98.27
2022-08-10T02:27:44.792Z,97.86
2022-08-10T02:28:44.740Z,97.86
2022-08-10T02:29:44.767Z,96.75
2022-08-10T02:30:44.678Z,96.95
2022-08-10T02:31:44.645Z,97.96
2022-08-10T02:32:44.722Z,97.76
2022-08-10T02:33:45.568Z,97.86
2022-08-10T02:34:44.557Z,97.96
2022-08-10T02:35:55.371Z,97.25
2022-08-10T02:36:44.496Z,97.05
2022-08-10T02:37:44.464Z,97.50
2022-08-10T02:38:58.822Z,98.01
2022-08-10T02:39:44.459Z,98.01
2022-08-10T02:45:15.453Z,96.89
2022-08-10T02:45:15.617Z,97.09
2022-08-10T02:45:15.845Z,97.91
2022-08-10T02:45:19.468Z,97.44
2022-08-10T02:45:23.047Z,96.89
2022-08-10T02:45:44.217Z,97.85
2022-08-10T02:46:44.637Z,97.91
2022-08-10T02:47:50.977Z,97.75
2022-08-10T02:48:44.128Z,97.55
2022-08-10T02:49:44.097Z,97.34
2022-08-10T02:50:44.065Z,97.34
2022-08-10T02:52:08.009Z,97.49
2022-08-10T02:52:44.006Z,97.29
2022-08-10T02:53:55.344Z,97.89
2022-08-10T02:54:43.996Z,98.50
2022-08-10T02:55:43.918Z,98.20
2022-08-10T02:56:43.882Z,98.20
2022-08-10T02:58:13.327Z,98.14
2022-08-10T02:58:43.822Z,98.45
2022-08-10T02:59:43.794Z,98.25
2022-08-10T03:00:43.816Z,98.25
2022-08-10T03:01:43.722Z,98.55
2022-08-10T03:02:43.752Z,98.60
2022-08-10T03:03:43.664Z,98.75
2022-08-10T03:04:55.743Z,99.57
2022-08-10T03:05:43.720Z,99.31
2022-08-10T03:06:43.777Z,99.52
2022-08-10T03:07:45.089Z,99.37
2022-08-10T03:08:43.590Z,99.99
2022-08-10T03:09:43.483Z,99.99
2022-08-10T03:10:43.454Z,99.82
2022-08-10T03:12:37.426Z,99.99
2022-08-10T03:12:43.383Z,99.99
2022-08-10T03:13:43.357Z,99.99
2022-08-10T03:14:43.380Z,99.99
2022-08-10T03:15:43.292Z,99.41
2022-08-10T03:16:43.260Z,99.99
2022-08-10T03:17:57.213Z,99.99
2022-08-10T03:18:43.233Z,99.46
2022-08-10T03:20:35.960Z,99.99
2022-08-10T03:20:43.152Z,99.99
2022-08-10T03:21:43.109Z,99.99
2022-08-10T03:22:43.078Z,99.99
2022-08-10T03:23:43.053Z,99.99
2022-08-10T03:24:43.081Z,99.99
2022-08-10T03:25:52.966Z,99.99
2022-08-10T03:26:43.012Z,99.99
2022-08-10T03:27:42.970Z,99.99
2022-08-10T03:28:42.889Z,99.99
2022-08-10T03:30:32.339Z,99.99
2022-08-10T03:30:42.885Z,99.99
2022-08-10T03:31:42.842Z,99.99
2022-08-10T03:32:42.778Z,99.99
2022-08-10T03:33:42.737Z,99.99
2022-08-10T03:34:42.703Z,99.99
2022-08-10T03:35:42.729Z,99.99
2022-08-10T03:36:45.160Z,99.99
2022-08-10T03:37:42.611Z,99.99
2022-08-10T03:38:42.579Z,99.99
2022-08-10T03:39:42.609Z,99.99
2022-08-10T03:40:45.752Z,99.99
2022-08-10T03:41:47.602Z,99.99
2022-08-10T03:42:42.457Z,99.99
2022-08-10T03:43:42.431Z,99.99
2022-08-10T03:44:43.628Z,99.99
2022-08-10T03:45:54.509Z,99.99
2022-08-10T03:46:42.380Z,99.99
2022-08-10T03:47:42.298Z,99.99
2022-08-10T03:48:48.593Z,99.99
2022-08-10T03:49:42.232Z,99.99
2022-08-10T03:50:50.930Z,99.99
2022-08-10T03:51:42.245Z,99.99
2022-08-10T03:52:42.159Z,99.99
2022-08-10T03:54:06.192Z,99.99
2022-08-10T03:54:42.082Z,99.99
2022-08-10T03:56:29.056Z,99.99
2022-08-10T03:56:42.018Z,99.99
2022-08-10T03:57:49.562Z,99.99
2022-08-10T03:58:41.984Z,99.99
2022-08-10T03:59:41.923Z,99.99
2022-08-10T04:00:41.929Z,99.99
2022-08-10T04:02:52.387Z,99.99
2022-08-10T04:02:52.750Z,99.99
2022-08-10T04:03:41.802Z,99.99
2022-08-10T04:04:41.821Z,99.99
2022-08-10T04:05:41.737Z,99.99
2022-08-10T04:06:41.712Z,99.99
2022-08-10T04:07:41.675Z,99.99
2022-08-10T04:08:41.702Z,99.99
2022-08-10T04:09:53.117Z,99.99
2022-08-10T04:10:41.579Z,99.99
2022-08-10T04:11:41.551Z,99.99
2022-08-10T04:12:41.523Z,99.99
2022-08-10T04:13:41.549Z,99.88
2022-08-10T04:14:49.420Z,99.93
2022-08-10T04:15:41.428Z,99.99
2022-08-10T04:16:41.393Z,99.02
2022-08-10T04:18:02.988Z,99.68
2022-08-10T04:18:41.337Z,99.33
2022-08-10T04:19:41.363Z,98.72
2022-08-10T04:20:41.276Z,97.96
2022-08-10T04:21:41.243Z,97.81
2022-08-10T04:22:41.991Z,97.41
2022-08-10T04:23:41.176Z,96.19
2022-08-10T04:24:41.199Z,96.09
2022-08-10T04:25:41.119Z,96.23
2022-08-10T04:26:41.081Z,96.44
2022-08-10T04:27:41.053Z,96.54
2022-08-10T04:28:41.024Z,96.23
2022-08-10T04:29:41.049Z,95.83
2022-08-10T04:30:41.011Z,95.07
2022-08-10T04:31:41.462Z,95.32
2022-08-10T04:32:41.116Z,94.82
2022-08-10T04:33:40.870Z,94.96
2022-08-10T04:34:40.856Z,95.26
2022-08-10T04:35:40.864Z,95.78
2022-08-10T04:36:40.842Z,96.59
2022-08-10T04:37:47.388Z,96.53
2022-08-10T04:38:40.713Z,96.28
2022-08-10T04:39:40.771Z,97.20
2022-08-10T04:40:40.654Z,97.20
2022-08-10T04:41:46.190Z,97.04
2022-08-10T04:42:40.595Z,96.89
2022-08-10T04:43:40.597Z,98.41
2022-08-10T04:44:40.547Z,98.47
2022-08-10T04:45:49.613Z,98.57
2022-08-10T04:46:56.256Z,99.18
2022-08-10T04:47:57.896Z,99.38
2022-08-10T04:49:01.559Z,98.83
2022-08-10T04:49:55.593Z,98.43
2022-08-10T04:50:40.608Z,97.81
2022-08-10T04:51:40.424Z,97.97
2022-08-10T04:52:40.294Z,97.26
2022-08-10T04:54:05.904Z,97.16
2022-08-10T04:54:40.225Z,97.16
2022-08-10T04:55:40.195Z,97.26
2022-08-10T04:56:40.193Z,97.47
2022-08-10T04:57:40.133Z,96.96
2022-08-10T04:58:40.174Z,96.86
2022-08-10T04:59:40.140Z,96.96
2022-08-10T05:00:40.176Z,96.81
2022-08-10T05:02:28.531Z,97.11
2022-08-10T05:02:40.206Z,96.87
2022-08-10T05:04:35.285Z,96.36
2022-08-10T05:04:39.934Z,96.06
2022-08-10T05:05:40.017Z,95.35
2022-08-10T05:06:39.881Z,95.55
2022-08-10T05:07:48.086Z,95.45
2022-08-10T05:08:39.811Z,94.70
2022-08-10T05:10:02.648Z,95.20
2022-08-10T05:10:39.747Z,94.14
2022-08-10T05:11:39.794Z,93.94
2022-08-10T05:12:39.750Z,93.63
2022-08-10T05:13:39.653Z,94.24
2022-08-10T05:14:39.623Z,94.19
2022-08-10T05:15:39.589Z,94.45
2022-08-10T05:16:39.554Z,94.09
2022-08-10T05:17:39.598Z,94.45
2022-08-10T05:18:39.495Z,94.45
2022-08-10T05:20:04.848Z,94.45
2022-08-10T05:20:39.442Z,94.65
2022-08-10T05:21:56.391Z,93.63
2022-08-10T05:22:40.054Z,93.84
2022-08-10T05:23:39.348Z,93.70
2022-08-10T05:24:39.317Z,93.49
2022-08-10T05:25:39.284Z,93.79
2022-08-10T05:26:55.196Z,93.70
2022-08-10T05:27:39.225Z,93.24
2022-08-10T05:28:39.349Z,93.39
2022-08-10T05:29:39.164Z,92.74
2022-08-10T05:30:39.137Z,93.15
2022-08-10T05:31:39.105Z,92.74
2022-08-10T05:32:56.913Z,92.84
2022-08-10T05:33:39.056Z,92.33
2022-08-10T05:34:39.089Z,92.74
2022-08-10T05:35:51.926Z,92.54
2022-08-10T05:36:38.954Z,92.44
2022-08-10T05:38:10.859Z,92.40
2022-08-10T05:38:38.891Z,92.09
2022-08-10T05:39:38.950Z,91.58
2022-08-10T05:40:38.887Z,91.99
2022-08-10T05:41:42.880Z,91.74
2022-08-10T05:42:38.825Z,91.99
2022-08-10T05:43:38.743Z,91.34
2022-08-10T05:44:38.709Z,90.94
2022-08-10T05:46:15.969Z,91.03
2022-08-10T05:46:38.655Z,90.43
2022-08-10T05:48:54.222Z,90.33
2022-08-10T05:48:57.174Z,91.14
2022-08-10T05:49:38.561Z,90.83
2022-08-10T05:50:38.598Z,90.73
2022-08-10T05:51:38.592Z,90.53
2022-08-10T05:52:38.551Z,90.19
2022-08-10T05:54:02.863Z,90.08
2022-08-10T05:54:46.141Z,90.89
2022-08-10T05:55:38.437Z,90.39
2022-08-10T05:56:54.328Z,90.69
2022-08-10T05:57:38.331Z,90.49
2022-08-10T05:58:38.294Z,90.39
2022-08-10T06:00:33.640Z,90.04
2022-08-10T06:00:42.916Z,90.45
2022-08-10T06:01:38.312Z,90.28
2022-08-10T06:02:38.185Z,90.45
2022-08-10T06:03:38.155Z,89.94
2022-08-10T06:04:38.117Z,90.14
2022-08-10T06:05:38.089Z,89.79
2022-08-10T06:06:38.117Z,89.54
2022-08-10T06:07:38.286Z,89.74
2022-08-10T06:08:38.005Z,89.84
2022-08-10T06:09:37.975Z,89.90
2022-08-10T06:10:38.958Z,89.29
2022-08-10T06:12:24.611Z,88.89
2022-08-10T06:12:55.381Z,89.19
2022-08-10T06:13:59.750Z,89.45
2022-08-10T06:14:38.186Z,89.09
2022-08-10T06:15:51.440Z,88.75
2022-08-10T06:16:37.769Z,89.15
2022-08-10T06:17:37.809Z,88.95
2022-08-10T06:18:37.706Z,88.85
2022-08-10T06:19:37.677Z,88.45
2022-08-10T06:20:37.649Z,88.75
2022-08-10T06:21:37.618Z,88.85
2022-08-10T06:22:37.894Z,88.30
2022-08-10T06:23:37.620Z,88.10
2022-08-10T06:24:43.154Z,87.80
2022-08-10T06:26:11.934Z,87.60
2022-08-10T06:26:37.474Z,87.76
2022-08-10T06:27:37.510Z,87.05
2022-08-10T06:28:37.415Z,86.44
2022-08-10T06:29:37.384Z,86.35
2022-08-10T06:30:37.363Z,86.41
2022-08-10T06:31:47.931Z,85.70
2022-08-10T06:32:37.357Z,85.40
2022-08-10T06:33:37.388Z,85.30
2022-08-10T06:34:37.247Z,85.00
2022-08-10T06:35:37.226Z,85.30
2022-08-10T06:36:37.193Z,85.05
2022-08-10T06:37:37.156Z,84.85
2022-08-10T06:38:37.154Z,84.45
2022-08-10T06:39:37.373Z,84.65
2022-08-10T06:40:37.181Z,84.45
2022-08-10T06:42:14.321Z,84.01
2022-08-10T06:42:37.240Z,84.01
2022-08-10T06:43:37.009Z,83.91
2022-08-10T06:44:37.010Z,83.91
2022-08-10T06:45:37.019Z,83.81
2022-08-10T06:46:36.931Z,83.61
2022-08-10T06:47:36.915Z,83.11
2022-08-10T06:48:36.912Z,82.97
2022-08-10T06:49:36.815Z,83.17
2022-08-10T06:50:56.265Z,82.92
2022-08-10T06:51:36.818Z,82.66
2022-08-10T06:52:37.875Z,81.32
2022-08-10T06:53:52.347Z,81.72
2022-08-10T06:54:36.672Z,81.62
2022-08-10T06:55:49.877Z,80.98
2022-08-10T06:56:43.699Z,81.27
2022-08-10T06:57:36.608Z,80.17
2022-08-10T06:58:36.562Z,80.07
2022-08-10T06:59:36.947Z,79.57
2022-08-10T07:00:36.756Z,79.97
2022-08-10T07:01:36.481Z,79.47
2022-08-10T07:02:36.561Z,79.97
2022-08-10T07:03:36.418Z,79.43
2022-08-10T07:04:36.398Z,79.83
2022-08-10T07:05:36.356Z,79.13
2022-08-10T07:06:36.692Z,78.73
2022-08-10T07:07:36.299Z,78.93
2022-08-10T07:08:36.298Z,78.42
2022-08-10T07:09:36.252Z,78.13
2022-08-10T07:10:41.074Z,78.29
2022-08-10T07:11:36.193Z,78.39
2022-08-10T07:12:36.415Z,77.19
2022-08-10T07:14:17.163Z,77.35
2022-08-10T07:14:36.107Z,77.25
2022-08-10T07:15:59.660Z,77.75
2022-08-10T07:16:36.057Z,76.85
2022-08-10T07:17:39.523Z,76.95
2022-08-10T07:18:36.002Z,76.75
2022-08-10T07:19:35.969Z,76.95
2022-08-10T07:20:35.940Z,76.95
2022-08-10T07:21:35.917Z,76.75
2022-08-10T07:23:08.276Z,76.61
2022-08-10T07:23:57.442Z,76.51
2022-08-10T07:24:35.832Z,75.91
2022-08-10T07:25:35.815Z,76.21
2022-08-10T07:26:35.774Z,76.21
2022-08-10T07:27:58.218Z,76.41
2022-08-10T07:28:35.723Z,76.01
2022-08-10T07:29:54.449Z,76.28
2022-08-10T07:30:35.666Z,75.87
2022-08-10T07:31:55.442Z,75.27
2022-08-10T07:32:35.700Z,75.27
2022-08-10T07:33:35.636Z,74.87
2022-08-10T07:34:35.603Z,74.87
2022-08-10T07:35:43.121Z,74.97
2022-08-10T07:36:35.503Z,74.67
2022-08-10T07:37:35.473Z,74.67
2022-08-10T07:38:35.546Z,74.13
2022-08-10T07:39:57.920Z,74.54
2022-08-10T07:40:35.514Z,74.00
2022-08-10T07:41:35.400Z,74.40
2022-08-10T07:42:35.464Z,73.00
2022-08-10T07:43:35.311Z,72.60
2022-08-10T07:44:35.284Z,72.09
2022-08-10T07:45:36.171Z,71.16
2022-08-10T07:46:35.231Z,71.16
2022-08-10T07:47:53.334Z,71.26
2022-08-10T07:48:35.299Z,71.26
2022-08-10T07:49:35.151Z,71.16
2022-08-10T07:50:35.474Z,70.86
2022-08-10T07:51:35.101Z,70.46
2022-08-10T07:52:35.832Z,70.53
2022-08-10T07:53:35.044Z,69.82
2022-08-10T07:54:35.014Z,69.49
2022-08-10T07:56:05.362Z,69.23
2022-08-10T07:56:48.433Z,68.99
2022-08-10T07:57:39.992Z,68.49
2022-08-10T07:58:34.966Z,68.09
2022-08-10T07:59:34.886Z,68.29
2022-08-10T08:00:34.860Z,68.09
2022-08-10T08:01:35.002Z,68.29
2022-08-10T08:02:35.817Z,68.49
2022-08-10T08:03:34.779Z,68.39
2022-08-10T08:04:34.796Z,68.79
2022-08-10T08:05:58.389Z,68.86
2022-08-10T08:06:34.700Z,68.09
2022-08-10T08:07:34.720Z,67.56
2022-08-10T08:08:34.655Z,67.96
2022-08-10T08:09:34.617Z,67.56
2022-08-10T08:10:34.588Z,67.26
2022-08-10T08:11:34.589Z,67.66
2022-08-10T08:12:36.984Z,67.66
2022-08-10T08:13:34.520Z,67.66
2022-08-10T08:14:34.486Z,66.96
2022-08-10T08:16:17.498Z,66.76
2022-08-10T08:16:34.434Z,66.96
2022-08-10T08:17:35.670Z,65.66
2022-08-10T08:18:36.952Z,65.86
2022-08-10T08:19:35.840Z,65.13
2022-08-10T08:20:34.326Z,65.23
2022-08-10T08:24:04.545Z,64.26
2022-08-10T08:24:04.585Z,64.13
2022-08-10T08:24:09.793Z,64.43
2022-08-10T08:24:34.698Z,65.13
2022-08-10T08:25:34.201Z,64.73
2022-08-10T08:26:34.170Z,64.53
2022-08-10T08:27:34.145Z,64.70
2022-08-10T08:28:34.142Z,63.73
2022-08-10T08:29:34.277Z,64.00
2022-08-10T08:30:34.071Z,60.91
2022-08-10T08:31:34.066Z,62.70
2022-08-10T08:32:34.026Z,62.50
2022-08-10T08:33:41.163Z,62.67
2022-08-10T08:34:33.963Z,62.48
2022-08-10T08:35:33.990Z,62.27
2022-08-10T08:36:33.906Z,61.98
2022-08-10T08:38:29.470Z,62.84
2022-08-10T08:38:34.870Z,61.55
2022-08-10T08:39:33.905Z,61.05
2022-08-10T08:40:33.859Z,60.85
2022-08-10T08:41:33.823Z,61.77
2022-08-10T08:42:33.755Z,61.68
2022-08-10T08:43:33.826Z,61.08
2022-08-10T08:44:34.985Z,61.18
2022-08-10T08:45:33.736Z,61.47
2022-08-10T08:46:33.646Z,61.85
2022-08-10T08:48:03.678Z,59.35
2022-08-10T08:48:33.595Z,59.05
2022-08-10T08:50:07.830Z,59.05
2022-08-10T08:50:33.596Z,58.45
2022-08-10T08:52:11.332Z,58.45
2022-08-10T08:52:33.495Z,58.83
2022-08-10T08:54:03.352Z,58.85
2022-08-10T08:54:33.444Z,58.85
2022-08-10T08:56:03.721Z,58.85
2022-08-10T08:56:33.578Z,57.82
2022-08-10T08:57:50.049Z,58.42
2022-08-10T08:58:33.355Z,57.60
2022-08-10T08:59:33.369Z,56.40
2022-08-10T09:00:33.294Z,56.60
2022-08-10T09:01:38.021Z,57.60
2022-08-10T09:02:33.388Z,56.51
2022-08-10T09:03:33.207Z,57.00
2022-08-10T09:04:33.193Z,55.80
2022-08-10T09:05:58.661Z,57.20
2022-08-10T09:06:33.127Z,57.50
2022-08-10T09:07:59.581Z,58.10
2022-08-10T09:08:33.081Z,57.00
2022-08-10T09:09:33.053Z,56.81
2022-08-10T09:10:37.384Z,57.20
2022-08-10T09:11:33.037Z,56.57
2022-08-10T09:12:33.701Z,55.58
2022-08-10T09:13:33.150Z,55.08
2022-08-10T09:14:32.920Z,55.28
2022-08-10T09:15:40.976Z,54.58
2022-08-10T09:16:32.904Z,54.88
2022-08-10T09:17:32.849Z,54.36
2022-08-10T09:18:32.821Z,53.19
2022-08-10T09:19:35.540Z,53.19
2022-08-10T09:20:32.777Z,54.49
2022-08-10T09:21:55.202Z,55.58
2022-08-10T09:22:32.734Z,55.18
2022-08-10T09:24:05.154Z,55.18
2022-08-10T09:24:32.808Z,54.58
2022-08-10T09:25:32.643Z,54.68
2022-08-10T09:26:32.622Z,54.75
2022-08-10T09:27:33.045Z,53.46
2022-08-10T09:28:32.569Z,54.26
2022-08-10T09:29:32.544Z,54.56
2022-08-10T09:30:35.757Z,54.66
2022-08-10T09:31:32.492Z,55.16
2022-08-10T09:36:14.520Z,54.75
2022-08-10T09:36:26.782Z,54.75
2022-08-10T09:36:27.004Z,54.43
2022-08-10T09:36:27.606Z,54.16
2022-08-10T09:36:33.778Z,54.96
2022-08-10T09:37:58.731Z,54.66
2022-08-10T09:38:32.317Z,52.97
2022-08-10T09:40:12.725Z,52.86
2022-08-10T09:41:00.607Z,53.04
2022-08-10T09:41:32.310Z,53.04
2022-08-10T09:42:32.278Z,53.14
2022-08-10T09:43:32.181Z,52.54
2022-08-10T09:44:32.173Z,52.44
2022-08-10T09:45:32.154Z,53.14
2022-08-10T09:46:32.212Z,52.74
2022-08-10T09:48:01.442Z,51.95
2022-08-10T09:48:32.062Z,52.14
2022-08-10T09:49:53.991Z,52.42
2022-08-10T09:50:55.709Z,52.14
2022-08-10T09:51:45.289Z,51.42
2022-08-10T09:52:32.089Z,51.32
2022-08-10T09:53:31.963Z,52.22
2022-08-10T09:54:31.904Z,52.12
2022-08-10T09:56:17.716Z,52.12
2022-08-10T09:56:31.864Z,51.42
2022-08-10T09:57:54.835Z,51.12
2022-08-10T09:58:31.809Z,51.42
2022-08-10T10:00:00.585Z,51.52
2022-08-10T10:00:31.793Z,51.42
2022-08-10T10:02:03.506Z,51.60
2022-08-10T10:02:31.706Z,50.40
2022-08-10T10:03:31.959Z,50.20
2022-08-10T10:04:31.669Z,50.80
2022-08-10T10:05:31.635Z,51.00
2022-08-10T10:06:31.609Z,50.20
2022-08-10T10:07:31.589Z,51.00
2022-08-10T10:08:31.615Z,50.48
2022-08-10T10:09:31.530Z,50.38
2022-08-10T10:10:31.522Z,50.28
2022-08-10T10:11:31.503Z,49.68
2022-08-10T10:12:31.464Z,49.68
2022-08-10T10:13:52.709Z,49.78
2022-08-10T10:14:31.413Z,49.38
2022-08-10T10:15:31.385Z,48.99
2022-08-10T10:16:31.366Z,49.78
2022-08-10T10:17:31.417Z,49.78
2022-08-10T10:18:31.412Z,49.68
2022-08-10T10:19:31.289Z,49.19
2022-08-10T10:20:31.268Z,49.91
2022-08-10T10:21:54.792Z,49.11
2022-08-10T10:22:31.210Z,49.91
2022-08-10T10:23:31.193Z,49.91
2022-08-10T10:24:31.253Z,50.31
2022-08-10T10:25:50.382Z,50.88
2022-08-10T10:26:31.113Z,50.28
2022-08-10T10:27:31.101Z,48.89
2022-08-10T10:28:50.127Z,48.89
2022-08-10T10:29:58.518Z,49.29
2022-08-10T10:30:31.074Z,49.56
2022-08-10T10:31:30.992Z,49.08
2022-08-10T10:32:34.783Z,48.59
2022-08-10T10:33:30.948Z,48.86
2022-08-10T10:34:31.019Z,48.27
2022-08-10T10:35:30.970Z,47.87
2022-08-10T10:36:30.888Z,47.97
2022-08-10T10:38:00.959Z,47.38
2022-08-10T10:38:30.832Z,46.88
2022-08-10T10:39:30.851Z,46.98
2022-08-10T10:40:30.829Z,47.87
2022-08-10T10:41:30.760Z,47.38
2022-08-10T10:42:44.806Z,47.28
2022-08-10T10:43:30.701Z,46.38
2022-08-10T10:44:30.803Z,46.98
2022-08-10T10:45:30.669Z,47.38
2022-08-10T10:46:30.704Z,47.97
2022-08-10T10:47:30.605Z,47.97
2022-08-10T10:48:30.653Z,47.97
2022-08-10T10:49:30.569Z,48.17
2022-08-10T10:50:30.534Z,47.97
2022-08-10T10:51:30.565Z,47.47
2022-08-10T10:52:30.493Z,47.87
2022-08-10T10:53:30.480Z,47.67
2022-08-10T10:54:30.510Z,48.17
2022-08-10T10:55:30.413Z,48.14
2022-08-10T10:56:30.443Z,47.45
2022-08-10T10:57:59.824Z,47.47
2022-08-10T10:58:30.414Z,48.14
2022-08-10T10:59:54.936Z,48.14
2022-08-10T11:00:30.301Z,48.25
2022-08-10T11:01:30.410Z,47.55
2022-08-10T11:02:30.287Z,47.65
2022-08-10T11:03:30.220Z,48.14
2022-08-10T11:04:30.201Z,47.55
2022-08-10T11:05:30.183Z,47.45
2022-08-10T11:06:39.804Z,48.13
2022-08-10T11:07:31.804Z,47.92
2022-08-10T11:08:30.118Z,47.55
2022-08-10T11:10:07.018Z,47.83
2022-08-10T11:10:32.710Z,47.73
2022-08-10T11:12:01.346Z,48.42
2022-08-10T11:12:30.070Z,47.92
2022-08-10T11:14:24.801Z,46.83
2022-08-10T11:14:29.984Z,46.51
2022-08-10T11:15:29.944Z,47.31
2022-08-10T11:16:29.908Z,46.51
2022-08-10T11:17:29.958Z,46.22
2022-08-10T11:18:29.867Z,46.51
2022-08-10T11:20:00.309Z,44.93
2022-08-10T11:20:29.819Z,46.00
2022-08-10T11:21:29.802Z,46.02
2022-08-10T11:22:29.763Z,46.12
2022-08-10T11:23:29.811Z,46.12
2022-08-10T11:24:47.172Z,45.92
2022-08-10T11:25:29.695Z,45.52
2022-08-10T11:26:29.681Z,45.62
2022-08-10T11:27:29.644Z,45.92
2022-08-10T11:28:29.689Z,45.82
2022-08-10T11:29:29.607Z,46.02
2022-08-10T11:30:29.577Z,46.31
2022-08-10T11:31:29.559Z,45.92
2022-08-10T11:32:29.538Z,46.22
2022-08-10T11:33:32.611Z,46.51
2022-08-10T11:34:48.170Z,45.92
2022-08-10T11:35:34.155Z,46.22
2022-08-10T11:36:29.436Z,46.24
2022-08-10T11:37:29.414Z,46.02
2022-08-10T11:38:37.040Z,46.02
2022-08-10T11:39:29.485Z,46.12
2022-08-10T11:40:29.472Z,46.12
2022-08-10T11:42:09.256Z,46.02
2022-08-10T11:42:35.658Z,45.30
2022-08-10T11:43:29.269Z,45.52
2022-08-10T11:44:29.248Z,46.02
2022-08-10T11:45:29.282Z,46.12
2022-08-10T11:46:29.344Z,47.01
2022-08-10T11:47:29.173Z,46.12
2022-08-10T11:48:54.129Z,46.09
2022-08-10T11:49:29.130Z,45.87
2022-08-10T11:50:29.157Z,45.57
2022-08-10T11:51:29.078Z,44.59
2022-08-10T11:52:29.135Z,43.99
2022-08-10T11:53:38.781Z,43.89
2022-08-10T11:54:29.023Z,43.99
2022-08-10T11:55:36.098Z,43.82
2022-08-10T11:56:28.967Z,43.91
2022-08-10T11:57:53.319Z,44.90
2022-08-10T11:58:28.969Z,44.41
2022-08-10T11:59:28.881Z,45.18
2022-08-10T12:00:29.593Z,45.18
2022-08-10T12:01:28.881Z,45.38
2022-08-10T12:02:28.998Z,44.59
2022-08-10T12:03:34.039Z,44.68
2022-08-10T12:04:28.765Z,43.79
2022-08-10T12:05:53.750Z,43.99
2022-08-10T12:06:53.601Z,45.18
2022-08-10T12:10:01.987Z,43.99
2022-08-10T12:10:06.461Z,45.18
2022-08-10T12:10:08.577Z,43.99
2022-08-10T12:10:28.622Z,44.19
2022-08-10T12:11:28.654Z,44.49
2022-08-10T12:12:28.581Z,44.09
2022-08-10T12:13:28.555Z,43.70
2022-08-10T12:14:28.551Z,44.09
2022-08-10T12:15:28.508Z,44.39
2022-08-10T12:16:28.598Z,44.41
2022-08-10T12:17:28.459Z,45.10
2022-08-10T12:18:28.435Z,44.51
2022-08-10T12:19:28.417Z,44.71
2022-08-10T12:20:28.387Z,44.78
2022-08-10T12:21:28.364Z,44.98
2022-08-10T12:22:28.424Z,43.89
2022-08-10T12:23:28.320Z,43.79
2022-08-10T12:24:28.298Z,43.79
2022-08-10T12:25:57.679Z,44.78
2022-08-10T12:26:28.254Z,43.89
2022-08-10T12:27:28.288Z,44.19
2022-08-10T12:28:51.213Z,44.89
2022-08-10T12:29:28.182Z,44.59
2022-08-10T12:30:28.156Z,43.87
2022-08-10T12:31:28.131Z,44.17
2022-08-10T12:32:28.194Z,44.37
2022-08-10T12:33:28.084Z,44.19
2022-08-10T12:34:28.065Z,44.27
2022-08-10T12:35:28.041Z,43.89
2022-08-10T12:36:28.017Z,43.77
2022-08-10T12:37:28.082Z,44.07
2022-08-10T12:38:27.963Z,43.97
2022-08-10T12:39:28.008Z,44.67
2022-08-10T12:40:35.734Z,43.77
2022-08-10T12:41:45.070Z,43.67
2022-08-10T12:42:37.120Z,43.55
2022-08-10T12:44:04.884Z,42.96
2022-08-10T12:44:41.649Z,42.46
2022-08-10T12:45:27.800Z,43.26
2022-08-10T12:46:27.776Z,43.16
2022-08-10T12:47:27.757Z,42.86
2022-08-10T12:48:31.067Z,42.66
2022-08-10T12:49:27.759Z,42.86
2022-08-10T12:50:32.822Z,42.96
2022-08-10T12:51:27.661Z,42.76
2022-08-10T12:52:27.666Z,42.36